createdAt,value
2022-10-17T00:01:59.461Z,12.30
2022-10-17T00:05:20.992Z,12.37
2022-10-17T00:08:43.564Z,12.25
2022-10-17T00:12:07.535Z,12.20
2022-10-17T00:15:32.021Z,12.18
2022-10-17T00:18:54.143Z,12.14
2022-10-17T00:22:15.968Z,12.11
2022-10-17T00:25:37.709Z,12.11
2022-10-17T00:28:59.325Z,12.07
2022-10-17T00:32:21.623Z,12.08
2022-10-17T00:35:43.150Z,12.05
2022-10-17T00:39:04.772Z,11.98
2022-10-17T00:42:31.323Z,11.87
2022-10-17T00:45:53.531Z,11.79
2022-10-17T00:49:15.074Z,11.80
2022-10-17T00:52:40.660Z,11.76
2022-10-17T00:56:04.477Z,11.73
2022-10-17T00:59:26.742Z,11.75
2022-10-17T01:02:48.785Z,11.70
2022-10-17T01:06:12.596Z,11.67
2022-10-17T01:09:34.837Z,11.63
2022-10-17T01:13:22.484Z,11.61
2022-10-17T01:16:59.349Z,11.55
2022-10-17T01:20:42.697Z,11.51
2022-10-17T01:24:28.783Z,11.43
2022-10-17T01:28:09.043Z,11.52
2022-10-17T01:32:05.181Z,11.40
2022-10-17T01:35:48.230Z,11.35
2022-10-17T01:39:15.237Z,11.25
2022-10-17T01:42:56.916Z,11.22
2022-10-17T01:46:30.390Z,11.24
2022-10-17T01:50:01.203Z,11.22
2022-10-17T01:53:28.999Z,11.21
2022-10-17T01:56:56.165Z,11.19
2022-10-17T02:00:22.526Z,11.27
2022-10-17T02:03:46.707Z,11.28
2022-10-17T02:07:12.994Z,11.24
2022-10-17T02:10:52.620Z,11.22
2022-10-17T02:14:34.911Z,11.25
2022-10-17T02:18:38.647Z,11.21
2022-10-17T02:22:21.986Z,11.19
2022-10-17T02:25:56.833Z,11.19
2022-10-17T02:29:26.171Z,11.22
2022-10-17T02:33:10.966Z,11.21
2022-10-17T02:36:41.147Z,11.19
2022-10-17T02:40:04.700Z,11.18
2022-10-17T02:43:29.204Z,11.14
2022-10-17T02:46:59.469Z,11.12
2022-10-17T02:54:12.978Z,11.03
2022-10-17T02:57:40.882Z,11.00
2022-10-17T03:01:04.394Z,11.00
2022-10-17T03:04:28.644Z,10.98
2022-10-17T03:07:50.845Z,10.90
2022-10-17T03:11:12.388Z,10.97
2022-10-17T03:14:34.015Z,10.91
2022-10-17T03:17:58.380Z,10.88
2022-10-17T03:21:19.975Z,10.81
2022-10-17T03:24:41.597Z,10.81
2022-10-17T03:28:03.251Z,10.83
2022-10-17T03:31:24.919Z,10.84
2022-10-17T03:34:48.988Z,10.84
2022-10-17T03:38:10.548Z,10.84
2022-10-17T03:41:34.288Z,10.88
2022-10-17T03:44:55.842Z,10.87
2022-10-17T03:48:19.624Z,10.87
2022-10-17T03:51:41.218Z,10.88
2022-10-17T03:55:05.282Z,10.83
2022-10-17T03:58:26.810Z,10.85
2022-10-17T04:01:50.544Z,10.77
2022-10-17T04:05:15.151Z,10.73
2022-10-17T04:08:36.698Z,10.76
2022-10-17T04:12:00.782Z,10.70
2022-10-17T04:15:24.568Z,10.73
2022-10-17T04:18:46.189Z,10.76
2022-10-17T04:22:08.523Z,10.81
2022-10-17T04:25:34.661Z,10.80
2022-10-17T04:28:58.272Z,10.73
2022-10-17T04:32:19.977Z,10.60
2022-10-17T04:35:41.475Z,10.73
2022-10-17T04:39:05.096Z,10.70
2022-10-17T04:42:29.152Z,10.74
2022-10-17T04:45:53.169Z,10.77
2022-10-17T04:49:19.703Z,10.70
2022-10-17T04:52:41.227Z,10.70
2022-10-17T04:56:09.339Z,10.63
2022-10-17T04:59:33.122Z,10.64
2022-10-17T05:02:54.613Z,10.64
2022-10-17T05:06:19.640Z,10.67
2022-10-17T05:09:41.162Z,10.66
2022-10-17T05:13:05.369Z,10.69
2022-10-17T05:16:30.861Z,10.71
2022-10-17T05:19:52.575Z,10.76
2022-10-17T05:23:14.101Z,10.73
2022-10-17T05:26:37.889Z,10.73
2022-10-17T05:30:01.834Z,10.74
2022-10-17T05:33:26.291Z,10.67
2022-10-17T05:36:50.259Z,10.70
2022-10-17T05:40:12.032Z,10.70
2022-10-17T05:43:36.098Z,10.73
2022-10-17T05:46:57.755Z,10.79
2022-10-17T05:50:25.246Z,11.06
2022-10-17T05:53:46.798Z,11.77
2022-10-17T05:57:08.309Z,12.25
2022-10-17T06:00:32.226Z,12.70
2022-10-17T06:03:53.971Z,12.99
2022-10-17T06:07:20.032Z,13.04
2022-10-17T06:10:41.545Z,12.79
2022-10-17T06:14:03.332Z,12.49
2022-10-17T06:17:25.289Z,12.35
2022-10-17T06:20:46.958Z,12.21
2022-10-17T06:24:08.563Z,12.11
2022-10-17T06:27:32.424Z,12.08
2022-10-17T06:30:56.175Z,12.13
2022-10-17T06:34:20.184Z,12.20
2022-10-17T06:37:44.680Z,12.32
2022-10-17T06:41:13.412Z,12.49
2022-10-17T06:44:34.977Z,12.85
2022-10-17T06:47:56.505Z,13.09
2022-10-17T06:51:18.208Z,13.16
2022-10-17T06:54:42.464Z,13.26
2022-10-17T06:58:04.088Z,13.41
2022-10-17T07:01:26.666Z,13.64
2022-10-17T07:04:48.208Z,13.83
2022-10-17T07:08:09.749Z,14.03
2022-10-17T07:11:31.269Z,14.34
2022-10-17T07:14:52.927Z,14.88
2022-10-17T07:18:14.859Z,15.29
2022-10-17T07:21:41.758Z,15.68
2022-10-17T07:25:06.559Z,16.49
2022-10-17T07:28:30.811Z,17.25
2022-10-17T07:31:52.387Z,17.01
2022-10-17T07:35:15.103Z,17.24
2022-10-17T07:38:36.809Z,17.69
2022-10-17T07:42:01.401Z,17.57
2022-10-17T07:45:23.859Z,17.98
2022-10-17T07:48:45.607Z,18.40
2022-10-17T07:52:09.346Z,18.56
2022-10-17T07:55:30.924Z,17.76
2022-10-17T07:58:53.470Z,17.53
2022-10-17T08:02:25.652Z,17.38
2022-10-17T08:05:49.404Z,18.03
2022-10-17T08:09:10.986Z,17.67
2022-10-17T08:12:34.794Z,17.79
2022-10-17T08:16:02.830Z,17.75
2022-10-17T08:19:27.013Z,17.52
2022-10-17T08:22:55.051Z,17.63
2022-10-17T08:26:17.353Z,17.93
2022-10-17T08:29:39.970Z,18.01
2022-10-17T08:33:03.756Z,18.32
2022-10-17T08:36:29.496Z,18.59
2022-10-17T08:39:54.010Z,18.82
2022-10-17T08:43:48.128Z,19.26
2022-10-17T08:47:27.953Z,19.04
2022-10-17T08:50:55.833Z,19.87
2022-10-17T08:54:22.591Z,19.59
2022-10-17T08:57:44.610Z,19.38
2022-10-17T09:01:43.921Z,20.03
2022-10-17T09:05:26.941Z,20.48
2022-10-17T09:08:58.023Z,21.10
2022-10-17T09:12:35.041Z,21.46
2022-10-17T09:16:01.236Z,22.08
2022-10-17T09:19:46.436Z,20.72
2022-10-17T09:23:21.083Z,20.85
2022-10-17T09:26:46.187Z,21.02
2022-10-17T09:30:50.781Z,21.57
2022-10-17T09:34:15.888Z,22.29
2022-10-17T09:37:41.652Z,21.92
2022-10-17T09:41:25.620Z,21.61
2022-10-17T09:45:01.347Z,22.06
2022-10-17T09:48:25.886Z,22.93
2022-10-17T09:51:48.464Z,23.31
2022-10-17T09:55:22.093Z,22.83
2022-10-17T09:58:57.231Z,22.53
2022-10-17T10:02:23.820Z,22.52
2022-10-17T10:06:01.921Z,22.49
2022-10-17T10:09:27.069Z,23.74
2022-10-17T10:13:16.423Z,24.82
2022-10-17T10:16:43.437Z,23.93
2022-10-17T10:20:35.710Z,24.90
2022-10-17T10:24:31.072Z,23.46
2022-10-17T10:27:56.393Z,22.36
2022-10-17T10:31:29.532Z,22.35
2022-10-17T10:35:06.570Z,22.83
2022-10-17T10:38:32.095Z,23.31
2022-10-17T10:41:53.754Z,23.55
2022-10-17T10:49:32.623Z,23.65
2022-10-17T10:53:13.701Z,24.00
2022-10-17T10:56:38.967Z,24.38
2022-10-17T11:00:12.566Z,24.54
2022-10-17T11:04:00.236Z,24.76
2022-10-17T11:07:31.000Z,24.80
2022-10-17T11:11:34.318Z,24.76
2022-10-17T11:14:58.747Z,24.90
2022-10-17T11:18:34.064Z,25.06
2022-10-17T11:22:17.552Z,25.03
2022-10-17T11:25:41.087Z,25.57
2022-10-17T11:29:06.623Z,25.74
2022-10-17T11:32:37.557Z,25.81
2022-10-17T11:36:07.061Z,24.86
2022-10-17T11:39:49.280Z,24.73
2022-10-17T11:43:20.359Z,25.16
2022-10-17T11:46:46.191Z,25.70
2022-10-17T11:54:13.897Z,26.92
2022-10-17T11:57:45.029Z,28.14
2022-10-17T12:01:47.725Z,28.02
2022-10-17T12:05:18.408Z,28.51
2022-10-17T12:08:58.232Z,26.87
2022-10-17T12:12:31.793Z,26.44
2022-10-17T12:15:58.018Z,26.84
2022-10-17T12:19:25.480Z,26.30
2022-10-17T12:22:48.735Z,25.48
2022-10-17T12:26:10.656Z,25.20
2022-10-17T12:29:32.666Z,26.01
2022-10-17T12:33:06.196Z,25.98
2022-10-17T12:36:28.921Z,24.64
2022-10-17T12:39:50.553Z,24.24
2022-10-17T12:43:15.400Z,24.48
2022-10-17T12:47:11.222Z,24.58
2022-10-17T12:51:30.826Z,24.85
2022-10-17T12:55:11.468Z,23.89
2022-10-17T12:58:35.966Z,23.92
2022-10-17T13:02:03.461Z,23.97
2022-10-17T13:05:35.262Z,24.62
2022-10-17T13:09:05.495Z,24.04
2022-10-17T13:12:29.881Z,23.77
2022-10-17T13:15:54.255Z,23.01
2022-10-17T13:19:25.662Z,23.17
2022-10-17T13:22:49.464Z,23.07
2022-10-17T13:26:25.745Z,22.86
2022-10-17T13:29:47.423Z,22.87
2022-10-17T13:33:39.081Z,22.90
2022-10-17T13:37:06.369Z,22.86
2022-10-17T13:40:44.480Z,22.93
2022-10-17T13:44:19.358Z,22.79
2022-10-17T13:47:43.936Z,22.77
2022-10-17T13:51:10.336Z,22.83
2022-10-17T13:54:35.744Z,22.86
2022-10-17T13:58:12.872Z,22.73
2022-10-17T14:01:34.545Z,22.61
2022-10-17T14:05:23.746Z,22.63
2022-10-17T14:09:07.231Z,22.69
2022-10-17T14:12:28.799Z,22.63
2022-10-17T14:15:52.777Z,22.55
2022-10-17T14:19:23.486Z,22.49
2022-10-17T14:22:50.638Z,22.49
2022-10-17T14:26:23.193Z,22.48
2022-10-17T14:29:55.622Z,22.39
2022-10-17T14:33:23.244Z,22.36
2022-10-17T14:36:55.478Z,22.66
2022-10-17T14:40:18.636Z,22.98
2022-10-17T14:43:40.346Z,23.28
2022-10-17T14:47:41.756Z,23.37
2022-10-17T14:51:16.801Z,23.49
2022-10-17T14:54:38.525Z,23.37
2022-10-17T14:58:00.582Z,23.10
2022-10-17T15:01:22.327Z,22.84
2022-10-17T15:04:46.239Z,22.48
2022-10-17T15:08:17.300Z,22.21
2022-10-17T15:11:41.269Z,22.02
2022-10-17T15:15:02.934Z,21.81
2022-10-17T15:18:32.350Z,21.63
2022-10-17T15:21:53.917Z,21.56
2022-10-17T15:25:17.821Z,21.43
2022-10-17T15:28:39.410Z,21.32
2022-10-17T15:32:00.979Z,21.19
2022-10-17T15:35:25.636Z,21.08
2022-10-17T15:38:48.117Z,21.03
2022-10-17T15:42:12.014Z,20.88
2022-10-17T15:45:33.855Z,20.71
2022-10-17T15:49:02.665Z,20.51
2022-10-17T15:52:24.959Z,20.37
2022-10-17T15:55:50.068Z,20.09
2022-10-17T15:59:20.099Z,19.90
2022-10-17T16:02:41.784Z,19.74
2022-10-17T16:06:03.338Z,19.58
2022-10-17T16:09:25.204Z,19.45
2022-10-17T16:12:49.698Z,19.27
2022-10-17T16:16:13.934Z,19.16
2022-10-17T16:19:35.415Z,18.95
2022-10-17T16:23:03.056Z,18.85
2022-10-17T16:26:25.112Z,18.79
2022-10-17T16:29:48.865Z,18.62
2022-10-17T16:33:10.699Z,18.52
2022-10-17T16:36:35.167Z,18.35
2022-10-17T16:39:56.736Z,18.24
2022-10-17T16:43:18.317Z,18.13
2022-10-17T16:46:42.265Z,18.05
2022-10-17T16:50:06.782Z,17.91
2022-10-17T16:53:28.299Z,17.82
2022-10-17T16:56:52.091Z,17.73
2022-10-17T17:00:16.767Z,17.55
2022-10-17T17:03:39.940Z,17.29
2022-10-17T17:07:01.972Z,17.29
2022-10-17T17:10:25.825Z,17.18
2022-10-17T17:13:47.398Z,17.06
2022-10-17T17:17:19.706Z,16.98
2022-10-17T17:20:59.698Z,16.81
2022-10-17T17:24:21.724Z,16.79
2022-10-17T17:27:45.565Z,16.70
2022-10-17T17:31:12.914Z,16.73
2022-10-17T17:34:40.368Z,16.70
2022-10-17T17:38:06.041Z,16.70
2022-10-17T17:41:28.172Z,16.59
2022-10-17T17:44:50.016Z,16.42
2022-10-17T17:48:14.283Z,16.39
2022-10-17T17:51:37.762Z,16.28
2022-10-17T17:54:59.272Z,16.19
2022-10-17T17:58:20.875Z,15.95
2022-10-17T18:01:43.439Z,15.91
2022-10-17T18:05:05.748Z,15.80
2022-10-17T18:08:30.122Z,15.83
2022-10-17T18:11:51.719Z,15.51
2022-10-17T18:15:13.654Z,15.64
2022-10-17T18:18:39.411Z,15.61
2022-10-17T18:22:00.985Z,15.54
2022-10-17T18:25:22.556Z,15.51
2022-10-17T18:28:47.202Z,15.42
2022-10-17T18:32:09.855Z,15.30
2022-10-17T18:35:31.450Z,15.42
2022-10-17T18:38:53.958Z,15.81
2022-10-17T18:42:15.485Z,16.11
2022-10-17T18:45:37.209Z,16.32
2022-10-17T18:49:01.012Z,16.45
2022-10-17T18:52:25.412Z,16.53
2022-10-17T18:55:50.203Z,16.33
2022-10-17T18:59:11.764Z,15.98
2022-10-17T19:02:35.627Z,15.58
2022-10-17T19:06:07.568Z,15.20
2022-10-17T19:09:31.761Z,15.02
2022-10-17T19:12:57.831Z,14.71
2022-10-17T19:16:29.152Z,14.65
2022-10-17T19:19:52.338Z,14.50
2022-10-17T19:23:16.250Z,14.47
2022-10-17T19:26:40.036Z,14.20
2022-10-17T19:30:01.991Z,14.09
2022-10-17T19:33:23.844Z,14.12
2022-10-17T19:36:48.471Z,14.24
2022-10-17T19:40:10.834Z,14.33
2022-10-17T19:43:32.399Z,14.72
2022-10-17T19:46:58.848Z,15.10
2022-10-17T19:50:23.051Z,15.35
2022-10-17T19:53:50.284Z,15.37
2022-10-17T19:57:14.033Z,15.61
2022-10-17T20:00:37.825Z,15.73
2022-10-17T20:03:59.589Z,15.78
2022-10-17T20:07:21.310Z,15.68
2022-10-17T20:10:43.500Z,15.32
2022-10-17T20:14:07.535Z,14.74
2022-10-17T20:17:29.096Z,14.60
2022-10-17T20:20:50.692Z,14.38
2022-10-17T20:24:16.997Z,14.29
2022-10-17T20:27:40.758Z,14.24
2022-10-17T20:31:05.357Z,14.19
2022-10-17T20:34:34.710Z,14.12
2022-10-17T20:37:56.231Z,14.06
2022-10-17T20:41:20.300Z,13.99
2022-10-17T20:44:41.993Z,13.92
2022-10-17T20:48:07.397Z,13.89
2022-10-17T20:51:31.150Z,13.83
2022-10-17T20:54:52.794Z,13.74
2022-10-17T20:58:17.097Z,13.72
2022-10-17T21:01:38.695Z,13.65
2022-10-17T21:05:00.267Z,13.59
2022-10-17T21:08:21.966Z,13.57
2022-10-17T21:11:43.757Z,13.54
2022-10-17T21:15:08.816Z,13.48
2022-10-17T21:18:30.292Z,13.33
2022-10-17T21:21:51.855Z,13.30
2022-10-17T21:25:13.437Z,13.31
2022-10-17T21:28:36.057Z,13.28
2022-10-17T21:32:02.527Z,13.21
2022-10-17T21:35:24.047Z,13.24
2022-10-17T21:38:49.996Z,13.16
2022-10-17T21:42:11.541Z,13.13
2022-10-17T21:45:36.130Z,13.00
2022-10-17T21:48:59.554Z,13.06
2022-10-17T21:52:21.055Z,13.04
2022-10-17T21:55:45.768Z,13.06
2022-10-17T21:59:07.934Z,13.02
2022-10-17T22:02:29.796Z,12.96
2022-10-17T22:06:06.965Z,12.97
2022-10-17T22:09:39.420Z,12.85
2022-10-17T22:13:00.915Z,12.82
2022-10-17T22:16:25.328Z,12.78
2022-10-17T22:19:47.557Z,12.75
2022-10-17T22:23:09.106Z,12.63
2022-10-17T22:26:32.400Z,12.62
2022-10-17T22:29:56.233Z,12.55
2022-10-17T22:33:17.906Z,12.56
2022-10-17T22:36:42.807Z,12.56
2022-10-17T22:40:06.070Z,12.49
2022-10-17T22:43:30.307Z,12.49
2022-10-17T22:46:51.800Z,12.48
2022-10-17T22:50:15.755Z,12.44
2022-10-17T22:53:37.797Z,12.35
2022-10-17T22:56:59.420Z,12.37
2022-10-17T23:00:23.764Z,12.35
2022-10-17T23:03:47.811Z,12.28
2022-10-17T23:07:13.981Z,12.24
2022-10-17T23:10:38.478Z,12.17
2022-10-17T23:14:02.308Z,12.17
2022-10-17T23:17:26.336Z,12.16
2022-10-17T23:20:51.133Z,12.10
2022-10-17T23:24:12.718Z,12.00
2022-10-17T23:27:35.321Z,11.98
2022-10-17T23:30:56.842Z,11.98
2022-10-17T23:34:18.364Z,11.94
2022-10-17T23:37:39.876Z,12.00
2022-10-17T23:41:01.370Z,11.95
2022-10-17T23:44:23.637Z,11.89
2022-10-17T23:47:45.257Z,11.87
2022-10-17T23:51:07.922Z,11.91
2022-10-17T23:54:29.507Z,11.80
2022-10-17T23:57:51.284Z,11.79
